Time;durP1;ratioP1;P1;durP2;ratioP2;P2;SDS_P1;SDS_P2;PMS_P1;PMS_P2;Temp;Humidity;BMP_temperature;BMP_pressure;BME280_temperature;BME280_humidity;BME280_pressure;Samples;Min_cycle;Max_cycle;Signal;HPM_P1;HPM_P2
2022/03/05 00:02:17;;;;;;;42.15;24.48;;;;;;;5.29;68.81;100508.78;6299818;22;20090;-86
2022/03/05 00:04:44;;;;;;;47.72;25.50;;;;;;;5.28;68.36;100512.38;6324841;22;20338;-88
2022/03/05 00:07:11;;;;;;;58.20;26.13;;;;;;;5.35;68.82;100516.16;6324771;22;20018;-87
2022/03/05 00:09:37;;;;;;;45.35;24.88;;;;;;;5.45;67.57;100522.31;6324260;22;20015;-88
2022/03/05 00:15:51;;;;;;;41.95;22.48;;;;;;;5.47;67.62;100536.13;6365225;22;20056;-89
2022/03/05 00:18:17;;;;;;;43.30;22.73;;;;;;;5.58;66.92;100525.56;6365187;22;20022;-89
2022/03/05 00:20:45;;;;;;;58.13;22.90;;;;;;;5.27;68.58;100531.72;6366320;22;20003;-85
2022/03/05 00:23:12;;;;;;;47.85;23.27;;;;;;;5.25;70.01;100531.03;6366011;22;20073;-89
2022/03/05 00:25:41;;;;;;;61.78;24.70;;;;;;;5.09;70.14;100528.00;6338166;22;20015;-88
2022/03/05 00:28:09;;;;;;;43.30;22.38;;;;;;;5.41;69.46;100520.88;6337011;22;20061;-86
2022/03/05 00:30:35;;;;;;;44.90;24.63;;;;;;;5.09;70.77;100528.00;6335458;22;20015;-87
2022/03/05 00:33:04;;;;;;;42.72;24.45;;;;;;;5.09;71.87;100533.25;6337591;22;20010;-87
2022/03/05 00:35:31;;;;;;;43.10;23.10;;;;;;;5.16;71.96;100534.41;6337420;22;20022;-88
2022/03/05 00:37:58;;;;;;;42.30;22.95;;;;;;;5.07;71.77;100525.50;6366500;22;20007;-83
2022/03/05 00:40:25;;;;;;;42.58;21.77;;;;;;;5.08;72.74;100534.22;6337020;22;19994;-88
2022/03/05 00:42:51;;;;;;;41.03;21.63;;;;;;;5.28;72.32;100538.63;6334731;22;20021;-87
2022/03/05 00:45:17;;;;;;;41.10;20.63;;;;;;;5.41;71.78;100535.81;6329919;22;20015;-88
2022/03/05 00:47:43;;;;;;;42.10;21.48;;;;;;;5.59;71.32;100540.38;6299858;22;20006;-89
2022/03/05 00:50:09;;;;;;;42.35;22.05;;;;;;;5.71;70.48;100531.44;6354482;22;20010;-89
2022/03/05 00:52:36;;;;;;;37.38;20.35;;;;;;;5.65;71.46;100544.28;6326655;22;20007;-88
2022/03/05 00:55:06;;;;;;;37.53;20.17;;;;;;;5.58;71.97;100536.06;6328147;22;20449;-87
2022/03/05 00:57:31;;;;;;;41.05;21.25;;;;;;;5.87;70.84;100528.34;6355488;22;20011;-85
2022/03/05 00:59:57;;;;;;;40.88;21.38;;;;;;;5.43;73.85;100529.50;6355948;22;20368;-90
2022/03/05 01:02:26;;;;;;;39.00;20.80;;;;;;;5.41;73.09;100535.81;6276971;22;20019;-88
2022/03/05 01:04:55;;;;;;;41.53;20.92;;;;;;;5.56;73.13;100532.75;6329219;22;20014;-88
2022/03/05 01:07:20;;;;;;;41.05;20.75;;;;;;;5.63;71.98;100533.06;6355110;22;20035;-87
2022/03/05 01:09:46;;;;;;;41.30;21.90;;;;;;;5.47;72.76;100537.97;6326962;22;19999;-88
2022/03/05 01:12:12;;;;;;;39.58;20.13;;;;;;;5.63;72.30;100533.88;6328410;22;20022;-86
2022/03/05 01:14:38;;;;;;;36.20;20.95;;;;;;;5.79;71.38;100537.84;6328030;22;20086;-88
2022/03/05 01:17:03;;;;;;;40.17;21.13;;;;;;;5.81;72.04;100535.91;6356938;22;20093;-88
2022/03/05 01:19:29;;;;;;;49.47;21.60;;;;;;;5.74;71.82;100539.06;6354627;22;20081;-88
2022/03/05 01:22:14;;;;;;;46.97;23.05;;;;;;;5.51;72.15;100534.91;6334611;22;20009;-86
2022/03/05 01:24:40;;;;;;;41.85;22.77;;;;;;;5.12;74.13;100525.13;6326738;22;20015;-83
2022/03/05 01:27:05;;;;;;;43.03;21.48;;;;;;;4.83;75.92;100531.94;6293300;22;20025;-83
2022/03/05 01:29:31;;;;;;;48.90;23.60;;;;;;;4.60;77.21;100521.53;6350559;22;20082;-87
2022/03/05 01:31:59;;;;;;;46.90;24.88;;;;;;;4.56;77.80;100533.22;6357160;22;20030;-85
2022/03/05 01:34:24;;;;;;;49.03;25.70;;;;;;;4.50;77.22;100532.88;6350586;22;20011;-88
2022/03/05 01:36:50;;;;;;;46.47;25.85;;;;;;;4.47;77.68;100535.75;6324238;22;20025;-88
2022/03/05 01:39:16;;;;;;;53.25;26.92;;;;;;;4.39;76.96;100533.72;6323534;22;20003;-86
2022/03/05 01:41:45;;;;;;;51.22;26.42;;;;;;;4.33;77.55;100526.34;6352307;22;20014;-85
2022/03/05 01:44:11;;;;;;;48.88;26.23;;;;;;;4.33;76.76;100533.38;6329771;22;20022;-86
2022/03/05 01:46:39;;;;;;;54.20;26.17;;;;;;;4.26;76.60;100526.94;6358301;22;20003;-85
2022/03/05 01:49:10;;;;;;;52.80;26.98;;;;;;;4.32;76.25;100531.72;6351231;22;20037;-86
2022/03/05 01:51:40;;;;;;;47.20;24.38;;;;;;;4.56;76.31;100529.75;6325762;22;20016;-86
2022/03/05 01:54:39;;;;;;;47.92;25.67;;;;;;;4.92;74.21;100532.03;6332537;22;19995;-88
2022/03/05 01:57:18;;;;;;;42.92;23.20;;;;;;;4.88;72.96;100529.75;6316787;22;19999;-87
2022/03/05 02:00:37;;;;;;;49.80;24.88;;;;;;;4.83;72.56;100532.78;6339705;22;20049;-88
2022/03/05 02:03:52;;;;;;;45.05;23.33;;;;;;;4.60;73.26;100534.66;6204560;23;20084;-88
2022/03/05 02:06:21;;;;;;;44.90;23.55;;;;;;;4.82;71.23;100531.09;6202363;23;20009;-88
2022/03/05 02:08:50;;;;;;;31.75;17.67;;;;;;;4.56;72.25;100533.22;6204835;23;20009;-87
2022/03/05 02:11:21;;;;;;;44.92;23.17;;;;;;;4.79;71.38;100546.28;6213332;22;20015;-88
2022/03/05 02:13:47;;;;;;;44.60;22.98;;;;;;;4.92;70.17;100545.16;6333224;22;20007;-88
2022/03/05 02:16:22;;;;;;;42.75;22.48;;;;;;;4.72;71.44;100550.34;6351787;22;20353;-88
2022/03/05 02:18:49;;;;;;;44.90;23.27;;;;;;;4.73;74.59;100549.41;6349587;22;20032;-89
2022/03/05 02:21:20;;;;;;;53.60;23.52;;;;;;;4.74;75.35;100553.69;6324460;22;20007;-89
2022/03/05 02:26:30;;;;;;;44.97;21.85;;;;;;;4.71;81.07;100549.50;6252670;22;20399;-86
2022/03/05 02:28:56;;;;;;;39.80;21.40;;;;;;;4.57;82.25;100539.31;6254330;22;20012;-87
2022/03/05 02:31:23;;;;;;;42.20;22.80;;;;;;;4.54;82.08;100553.47;6260969;22;20339;-88
2022/03/05 02:33:52;;;;;;;41.65;23.55;;;;;;;4.52;83.50;100558.03;6254112;23;20047;-85
2022/03/05 02:36:19;;;;;;;48.97;23.75;;;;;;;4.44;85.76;100552.56;6253192;23;20008;-88
2022/03/05 02:38:45;;;;;;;47.63;22.48;;;;;;;4.61;87.14;100549.41;6255354;22;20020;-84
2022/03/05 02:41:11;;;;;;;41.35;22.38;;;;;;;4.54;87.81;100556.09;6255702;22;20016;-87
2022/03/05 02:43:36;;;;;;;39.92;22.83;;;;;;;4.63;89.29;100554.56;6257239;22;20004;-86
2022/03/05 02:46:02;;;;;;;46.33;23.38;;;;;;;4.48;89.79;100548.72;6268343;22;20008;-83
2022/03/05 02:48:28;;;;;;;46.25;22.38;;;;;;;4.47;90.93;100547.09;6258106;22;20086;-85
2022/03/05 02:50:54;;;;;;;45.28;23.40;;;;;;;4.33;91.57;100542.09;6252236;22;20015;-86
2022/03/05 02:53:20;;;;;;;46.67;23.73;;;;;;;4.42;91.40;100551.00;6225226;23;20490;-85
2022/03/05 02:55:46;;;;;;;48.55;23.70;;;;;;;4.34;91.79;100546.38;6252476;23;20016;-86
2022/03/05 02:58:11;;;;;;;44.50;22.73;;;;;;;4.38;91.99;100539.09;6252782;22;20008;-85
2022/03/05 03:00:37;;;;;;;46.30;23.45;;;;;;;4.13;93.49;100554.16;6251951;23;20008;-86
2022/03/05 03:03:03;;;;;;;46.55;24.98;;;;;;;4.18;94.63;100534.63;6254491;22;20015;-86
2022/03/05 03:05:29;;;;;;;46.35;24.50;;;;;;;4.02;96.18;100550.69;6204139;23;20040;-85
2022/03/05 03:07:54;;;;;;;45.95;25.30;;;;;;;3.92;95.93;100544.50;6252494;23;20050;-88
2022/03/05 03:10:21;;;;;;;52.85;24.58;;;;;;;3.94;94.55;100550.47;6251601;22;20317;-85
2022/03/05 03:12:47;;;;;;;47.00;23.80;;;;;;;3.83;95.94;100547.84;6254226;22;20024;-85
2022/03/05 03:15:14;;;;;;;50.45;25.23;;;;;;;3.90;94.88;100546.41;6252943;23;20435;-86
2022/03/05 03:17:40;;;;;;;45.75;25.42;;;;;;;3.47;96.08;100551.50;6253913;23;20094;-86
2022/03/05 03:20:07;;;;;;;45.28;23.80;;;;;;;3.44;97.89;100555.19;6251681;23;20383;-85
2022/03/05 03:22:33;;;;;;;51.55;23.83;;;;;;;3.71;95.01;100556.66;6253239;22;20034;-85
2022/03/05 03:24:59;;;;;;;50.35;25.08;;;;;;;3.34;95.49;100554.22;6251926;22;20047;-86
2022/03/05 03:27:25;;;;;;;47.75;24.33;;;;;;;3.23;96.72;100558.56;6250804;23;20367;-85
2022/03/05 03:29:50;;;;;;;57.33;25.05;;;;;;;3.25;96.39;100565.34;6252273;22;20083;-84
2022/03/05 03:32:15;;;;;;;46.28;24.85;;;;;;;3.14;96.88;100552.25;6252832;22;20070;-85
2022/03/05 03:34:41;;;;;;;45.53;24.00;;;;;;;3.10;97.57;100567.34;6251421;22;20028;-86
2022/03/05 03:37:07;;;;;;;49.95;25.60;;;;;;;2.95;98.81;100565.03;6252428;22;19996;-85
2022/03/05 03:39:32;;;;;;;52.33;25.83;;;;;;;3.02;99.37;100553.97;6250777;22;20039;-85
2022/03/05 03:41:58;;;;;;;58.25;25.52;;;;;;;2.84;100.00;100554.50;6253406;23;20009;-85
2022/03/05 03:44:23;;;;;;;48.53;25.65;;;;;;;2.91;100.00;100553.09;6256401;22;20110;-86
2022/03/05 03:46:49;;;;;;;50.70;27.15;;;;;;;2.74;100.00;100563.97;6256816;22;20005;-85
2022/03/05 03:49:15;;;;;;;53.00;25.98;;;;;;;2.83;100.00;100563.28;6256050;23;20012;-86
2022/03/05 03:51:40;;;;;;;52.28;26.40;;;;;;;2.82;100.00;100562.44;6255093;23;20095;-85
2022/03/05 03:54:06;;;;;;;47.55;26.27;;;;;;;2.58;100.00;100565.09;6259525;22;20030;-86
2022/03/05 03:56:32;;;;;;;52.55;27.95;;;;;;;2.53;100.00;100556.72;6252619;23;20012;-86
2022/03/05 03:58:57;;;;;;;55.60;27.60;;;;;;;2.44;100.00;100557.38;6252662;22;20065;-86
2022/03/05 04:01:23;;;;;;;53.95;26.25;;;;;;;2.50;100.00;100567.41;6252846;22;20383;-87
2022/03/05 04:03:48;;;;;;;58.33;28.92;;;;;;;2.62;100.00;100560.44;6252731;23;20038;-88
2022/03/05 04:06:15;;;;;;;59.53;28.42;;;;;;;2.62;100.00;100562.25;6253309;23;20016;-86
2022/03/05 04:08:44;;;;;;;53.97;27.33;;;;;;;2.55;100.00;100564.47;6261886;22;19999;-83
2022/03/05 04:11:11;;;;;;;56.53;28.48;;;;;;;2.70;100.00;100570.34;6264807;23;20005;-83
2022/03/05 04:13:37;;;;;;;56.00;27.10;;;;;;;2.75;100.00;100568.25;6250889;22;20008;-84
2022/03/05 04:16:04;;;;;;;52.78;27.95;;;;;;;2.74;100.00;100571.81;6253622;22;20012;-85
2022/03/05 04:19:13;;;;;;;51.10;27.50;;;;;;;2.89;100.00;100573.31;6267645;23;20016;-87
2022/03/05 04:21:42;;;;;;;55.17;27.90;;;;;;;3.09;100.00;100575.28;6176375;23;20039;-87
2022/03/05 04:24:07;;;;;;;50.67;26.90;;;;;;;3.05;100.00;100584.31;6202710;23;20020;-87
2022/03/05 04:26:42;;;;;;;54.75;27.58;;;;;;;2.96;100.00;100585.84;6254252;23;20040;-83
2022/03/05 04:29:08;;;;;;;56.63;28.95;;;;;;;3.02;100.00;100579.31;6227952;23;20096;-86
2022/03/05 04:31:34;;;;;;;61.33;29.67;;;;;;;2.90;100.00;100588.06;6252914;22;20079;-85
2022/03/05 04:34:00;;;;;;;58.72;30.52;;;;;;;2.72;100.00;100589.41;6257210;22;20019;-88
2022/03/05 04:36:26;;;;;;;60.22;30.40;;;;;;;2.60;100.00;100588.50;6231972;23;20039;-87
2022/03/05 04:38:55;;;;;;;66.70;31.95;;;;;;;2.55;100.00;100596.66;6256225;22;20012;-87
2022/03/05 04:41:20;;;;;;;61.20;31.80;;;;;;;2.62;100.00;100601.50;6254983;22;20004;-86
2022/03/05 04:43:47;;;;;;;66.78;31.02;;;;;;;2.63;100.00;100597.91;6256279;22;20011;-86
2022/03/05 04:46:18;;;;;;;63.63;31.27;;;;;;;2.73;100.00;100598.91;6255535;23;20011;-86
2022/03/05 04:48:44;;;;;;;43.10;21.83;;;;;;;2.70;100.00;100599.13;6255498;23;20036;-87
2022/03/05 04:51:09;;;;;;;57.72;32.45;;;;;;;2.70;100.00;100604.38;6256470;22;20015;-88
2022/03/05 04:53:38;;;;;;;69.13;31.60;;;;;;;2.67;100.00;100589.75;6257570;23;20016;-87
2022/03/05 04:56:04;;;;;;;63.92;31.90;;;;;;;2.66;100.00;100608.16;6260420;22;20113;-82
2022/03/05 04:58:30;;;;;;;57.72;31.33;;;;;;;2.74;100.00;100611.91;6232040;23;20018;-85
2022/03/05 05:00:56;;;;;;;61.20;30.48;;;;;;;2.84;100.00;100612.91;6257117;22;20004;-86
2022/03/05 05:03:22;;;;;;;60.05;29.98;;;;;;;2.96;100.00;100616.41;6259063;22;20004;-86
2022/03/05 05:05:48;;;;;;;59.63;30.77;;;;;;;2.97;100.00;100629.41;6261704;23;20019;-85
2022/03/05 05:08:17;;;;;;;56.95;29.65;;;;;;;2.89;100.00;100626.50;6259604;23;20024;-86
2022/03/05 05:10:43;;;;;;;57.08;28.92;;;;;;;2.87;100.00;100630.19;6257730;23;20106;-86
2022/03/05 05:13:09;;;;;;;54.30;28.40;;;;;;;3.00;100.00;100638.81;6260080;22;20012;-87
2022/03/05 05:15:35;;;;;;;60.65;29.08;;;;;;;2.97;100.00;100634.63;6260341;22;20008;-85
2022/03/05 05:18:00;;;;;;;51.80;27.70;;;;;;;2.81;100.00;100638.47;6259073;22;20454;-85
2022/03/05 05:20:26;;;;;;;53.10;28.10;;;;;;;2.93;100.00;100637.56;6256198;22;20012;-88
2022/03/05 05:22:52;;;;;;;55.90;29.33;;;;;;;3.00;100.00;100638.81;6252516;22;20004;-84
2022/03/05 05:25:18;;;;;;;56.05;27.90;;;;;;;2.78;100.00;100646.53;6253893;22;20102;-83
2022/03/05 05:27:45;;;;;;;57.40;28.42;;;;;;;2.97;100.00;100649.50;6252899;22;20038;-85
2022/03/05 05:30:10;;;;;;;57.08;28.65;;;;;;;2.84;100.00;100630.41;6259289;22;20057;-87
2022/03/05 05:32:43;;;;;;;51.40;27.80;;;;;;;2.85;100.00;100635.50;6269485;22;20051;-85
2022/03/05 05:35:10;;;;;;;54.72;29.75;;;;;;;2.79;100.00;100635.09;6264451;22;20020;-83
2022/03/05 05:37:36;;;;;;;55.05;29.63;;;;;;;3.02;100.00;100632.50;6260165;22;20019;-85
2022/03/05 05:40:03;;;;;;;52.90;28.42;;;;;;;3.09;100.00;100625.03;6262200;22;20004;-88
2022/03/05 05:42:32;;;;;;;52.70;28.55;;;;;;;3.02;100.00;100621.19;6260142;22;20043;-84
2022/03/05 05:44:57;;;;;;;55.35;28.30;;;;;;;3.11;100.00;100623.16;6260316;22;20332;-85
2022/03/05 05:47:29;;;;;;;53.63;26.55;;;;;;;3.46;100.00;100624.00;6256792;22;20087;-85
2022/03/05 05:49:54;;;;;;;50.83;25.77;;;;;;;3.59;100.00;100622.13;6256267;23;20004;-87
2022/03/05 05:52:23;;;;;;;49.55;24.80;;;;;;;3.66;100.00;100633.00;6259209;22;20103;-88
2022/03/05 05:54:48;;;;;;;47.80;25.67;;;;;;;3.65;100.00;100629.53;6260916;22;20004;-89
2022/03/05 05:57:20;;;;;;;51.38;25.98;;;;;;;3.78;100.00;100637.31;6232415;23;20020;-87
2022/03/05 05:59:46;;;;;;;57.95;25.55;;;;;;;3.52;100.00;100634.03;6237406;23;20013;-88
2022/03/05 06:02:13;;;;;;;49.58;26.38;;;;;;;3.41;100.00;100620.91;6209548;23;20023;-89
2022/03/05 06:07:42;;;;;;;52.63;28.20;;;;;;;3.08;100.00;100616.34;6232768;23;20332;-89
2022/03/05 06:10:10;;;;;;;58.05;29.25;;;;;;;2.82;100.00;100620.03;6233593;23;20092;-88
2022/03/05 06:12:38;;;;;;;62.22;31.13;;;;;;;2.83;100.00;100618.25;6202794;23;20384;-91
2022/03/05 06:15:17;;;;;;;62.40;30.63;;;;;;;2.81;100.00;100617.53;6230947;23;20077;-90
2022/03/05 06:17:52;;;;;;;60.05;30.92;;;;;;;2.49;100.00;100623.25;6238364;23;20043;-89
2022/03/05 06:20:47;;;;;;;61.15;30.42;;;;;;;2.74;100.00;100621.53;6239389;23;20009;-89
2022/03/05 06:23:17;;;;;;;55.88;30.17;;;;;;;2.70;100.00;100614.84;6237615;23;20016;-86
2022/03/05 06:25:55;;;;;;;56.53;30.48;;;;;;;2.74;100.00;100609.28;6239207;23;20013;-84
2022/03/05 06:28:30;;;;;;;60.47;29.33;;;;;;;2.72;100.00;100618.19;6242693;22;20019;-84
2022/03/05 06:30:56;;;;;;;59.88;31.02;;;;;;;2.97;100.00;100616.31;6241680;22;20009;-85
2022/03/05 06:33:22;;;;;;;62.22;31.90;;;;;;;3.01;100.00;100611.69;6243171;22;20024;-86
2022/03/05 06:35:52;;;;;;;60.42;29.83;;;;;;;3.29;100.00;100619.19;6218161;22;20012;-88
2022/03/05 06:38:24;;;;;;;66.22;30.50;;;;;;;3.24;100.00;100610.84;6243465;22;19997;-88
2022/03/05 06:43:32;;;;;;;64.07;31.13;;;;;;;3.55;100.00;100625.94;6276481;22;20026;-86
2022/03/05 06:45:57;;;;;;;54.05;28.58;;;;;;;3.83;100.00;100623.84;6329199;22;20082;-84
2022/03/05 06:48:23;;;;;;;51.10;27.70;;;;;;;3.96;100.00;100619.34;6312433;22;20011;-85
2022/03/05 06:50:49;;;;;;;54.40;27.85;;;;;;;3.87;100.00;100620.06;6284640;22;20328;-88
2022/03/05 06:53:15;;;;;;;55.53;29.63;;;;;;;4.00;100.00;100621.63;6289792;22;20011;-85
2022/03/05 06:55:40;;;;;;;50.80;27.75;;;;;;;4.23;100.00;100617.22;6319081;22;20011;-86
2022/03/05 06:58:06;;;;;;;49.05;26.85;;;;;;;4.30;100.00;100617.59;6319965;22;20011;-87
2022/03/05 07:00:32;;;;;;;58.80;29.52;;;;;;;4.39;100.00;100630.81;6317229;22;20053;-86
2022/03/05 07:02:57;;;;;;;47.38;26.65;;;;;;;4.71;100.00;100625.63;6288394;22;20060;-86
2022/03/05 07:05:23;;;;;;;53.90;27.58;;;;;;;4.95;100.00;100630.72;6318307;22;20021;-84
2022/03/05 07:07:48;;;;;;;53.30;26.73;;;;;;;5.33;99.33;100633.72;6312659;22;20038;-84
2022/03/05 07:10:14;;;;;;;41.25;24.10;;;;;;;6.33;91.15;100643.63;6313570;22;20048;-86
2022/03/05 07:12:40;;;;;;;55.15;24.70;;;;;;;6.17;90.56;100648.53;6313441;22;20012;-83
2022/03/05 07:15:07;;;;;;;46.03;25.58;;;;;;;5.51;93.92;100649.75;6289369;22;20019;-84
2022/03/05 07:17:33;;;;;;;50.63;26.98;;;;;;;5.97;91.89;100652.84;6317126;22;20064;-83
2022/03/05 07:19:58;;;;;;;46.78;24.00;;;;;;;6.59;90.39;100651.94;6323376;22;20011;-83
2022/03/05 07:22:24;;;;;;;50.47;24.77;;;;;;;6.95;86.39;100667.13;6294784;22;20481;-83
2022/03/05 07:24:50;;;;;;;53.00;26.25;;;;;;;6.70;86.11;100670.22;6320643;22;20072;-84
2022/03/05 07:27:16;;;;;;;44.08;25.17;;;;;;;6.64;85.90;100674.25;6292446;22;20007;-83
2022/03/05 07:29:43;;;;;;;55.38;25.42;;;;;;;6.20;86.93;100669.31;6291483;22;20011;-83
2022/03/05 07:32:10;;;;;;;47.28;26.17;;;;;;;7.02;83.21;100677.97;6320393;22;20011;-84
2022/03/05 07:34:36;;;;;;;45.65;25.73;;;;;;;7.34;83.48;100681.19;6318397;22;20427;-81
2022/03/05 07:37:01;;;;;;;49.42;26.73;;;;;;;7.59;82.80;100687.75;6309877;22;20018;-83
2022/03/05 07:39:27;;;;;;;58.15;27.33;;;;;;;8.03;77.38;100696.84;6281419;22;20011;-84
2022/03/05 07:41:52;;;;;;;51.15;27.55;;;;;;;7.81;78.78;100703.28;6309089;22;20115;-83
2022/03/05 07:44:18;;;;;;;53.65;28.20;;;;;;;8.36;76.13;100709.59;6310111;22;20019;-81
2022/03/05 07:46:44;;;;;;;57.97;28.33;;;;;;;8.27;75.76;100710.44;6281343;22;20017;-83
2022/03/05 07:49:10;;;;;;;60.83;30.00;;;;;;;8.21;77.02;100705.72;6281627;22;20011;-85
2022/03/05 07:51:36;;;;;;;51.45;27.75;;;;;;;8.40;73.97;100711.00;6313421;22;20003;-83
2022/03/05 07:54:04;;;;;;;59.55;28.52;;;;;;;7.96;74.75;100706.31;6316254;22;20018;-81
2022/03/05 07:56:29;;;;;;;52.88;28.98;;;;;;;7.77;77.20;100710.66;6307022;22;20027;-82
2022/03/05 07:58:55;;;;;;;51.55;27.92;;;;;;;7.94;76.17;100718.81;6333146;22;20022;-81
2022/03/05 08:01:20;;;;;;;58.75;29.02;;;;;;;7.92;76.73;100704.94;6318918;22;20007;-83
2022/03/05 08:03:46;;;;;;;53.17;28.20;;;;;;;7.79;74.66;100716.59;6282887;22;20010;-83
2022/03/05 08:06:12;;;;;;;54.38;28.55;;;;;;;8.31;72.96;100711.84;6308319;22;20074;-85
2022/03/05 08:08:37;;;;;;;57.78;28.25;;;;;;;8.56;69.72;100719.13;6307874;22;20488;-86
2022/03/05 08:11:03;;;;;;;52.53;26.10;;;;;;;8.44;70.67;100715.00;6308568;22;20030;-87
2022/03/05 08:13:29;;;;;;;50.58;27.77;;;;;;;8.97;69.41;100719.66;6308374;22;20012;-82
2022/03/05 08:15:56;;;;;;;48.53;26.05;;;;;;;9.60;66.56;100723.16;6280114;22;20003;-82
2022/03/05 08:18:21;;;;;;;55.65;24.77;;;;;;;10.24;60.83;100723.72;6307513;22;20014;-82
2022/03/05 08:20:47;;;;;;;41.67;22.02;;;;;;;9.64;60.16;100719.25;6307732;22;20007;-84
2022/03/05 08:23:13;;;;;;;38.30;22.00;;;;;;;9.00;61.25;100729.94;6307276;22;20037;-82
2022/03/05 08:25:39;;;;;;;45.53;23.48;;;;;;;8.82;63.46;100727.22;6307496;22;20015;-82
2022/03/05 08:28:05;;;;;;;39.10;21.63;;;;;;;8.82;62.33;100730.72;6280491;22;20038;-82
2022/03/05 08:30:30;;;;;;;47.25;22.73;;;;;;;9.47;61.98;100725.34;6280163;22;20007;-83
2022/03/05 08:32:56;;;;;;;43.95;23.38;;;;;;;9.26;61.50;100725.63;6307694;22;20007;-81
2022/03/05 08:35:22;;;;;;;45.10;21.92;;;;;;;9.43;60.05;100730.09;6307243;22;20011;-85
2022/03/05 08:37:48;;;;;;;42.33;21.02;;;;;;;9.10;60.12;100728.91;6307374;22;20007;-81
2022/03/05 08:40:14;;;;;;;44.83;22.27;;;;;;;9.27;60.54;100730.78;6309008;22;20014;-81
2022/03/05 08:42:41;;;;;;;46.50;23.63;;;;;;;8.56;63.87;100734.97;6307379;22;20018;-82
2022/03/05 08:45:08;;;;;;;43.38;21.38;;;;;;;8.94;62.97;100726.09;6307563;22;20015;-85
2022/03/05 08:47:34;;;;;;;52.72;21.85;;;;;;;9.17;63.60;100724.72;6280209;22;20500;-86
2022/03/05 08:50:00;;;;;;;45.38;23.58;;;;;;;9.45;62.59;100733.41;6307463;22;20092;-84
2022/03/05 08:52:28;;;;;;;47.88;22.50;;;;;;;9.78;60.53;100735.41;6307458;22;20046;-81
2022/03/05 08:54:55;;;;;;;41.47;23.20;;;;;;;9.84;59.73;100729.50;6309130;22;20343;-85
2022/03/05 08:57:20;;;;;;;44.70;22.23;;;;;;;10.61;57.58;100742.00;6287891;22;20330;-83
2022/03/05 08:59:46;;;;;;;43.47;22.17;;;;;;;9.89;59.98;100739.63;6322121;22;20014;-83
2022/03/05 09:02:12;;;;;;;41.80;21.85;;;;;;;9.71;59.71;100731.69;6324769;22;20030;-84
2022/03/05 09:04:37;;;;;;;39.25;21.95;;;;;;;10.00;59.46;100735.94;6318275;22;20026;-85
2022/03/05 09:07:03;;;;;;;44.38;21.58;;;;;;;10.10;58.24;100740.16;6287297;22;20007;-83
2022/03/05 09:09:29;;;;;;;39.85;19.80;;;;;;;10.67;53.91;100728.13;6314594;22;20060;-82
2022/03/05 09:11:54;;;;;;;44.53;22.48;;;;;;;10.74;54.78;100731.81;6316248;22;20007;-84
2022/03/05 09:14:20;;;;;;;40.35;21.08;;;;;;;10.48;55.99;100736.31;6316264;22;20046;-81
2022/03/05 09:16:45;;;;;;;38.78;20.15;;;;;;;10.63;54.68;100734.75;6287745;22;20011;-87
2022/03/05 09:19:11;;;;;;;37.72;20.23;;;;;;;9.95;56.60;100732.91;6308272;22;20046;-83
2022/03/05 09:21:37;;;;;;;37.47;17.60;;;;;;;10.24;53.64;100734.31;6310734;22;20011;-81
2022/03/05 09:24:04;;;;;;;36.08;16.67;;;;;;;10.81;50.42;100738.16;6314545;22;20015;-81
2022/03/05 09:26:31;;;;;;;32.50;16.75;;;;;;;11.03;50.63;100727.97;6285710;22;19999;-80
2022/03/05 09:28:56;;;;;;;32.58;16.13;;;;;;;11.43;49.67;100723.59;6314636;22;20014;-83
2022/03/05 09:31:22;;;;;;;32.95;15.68;;;;;;;10.54;49.64;100735.69;6312851;22;20331;-81
2022/03/05 09:33:48;;;;;;;30.33;17.10;;;;;;;10.30;51.05;100732.88;6286461;22;20073;-82
2022/03/05 09:36:14;;;;;;;38.35;17.15;;;;;;;9.60;53.03;100724.00;6289884;22;20007;-81
2022/03/05 09:38:40;;;;;;;43.17;17.70;;;;;;;10.35;52.78;100726.13;6290499;22;20033;-82
2022/03/05 09:41:07;;;;;;;38.88;17.58;;;;;;;10.65;50.84;100724.81;6266341;22;20123;-81
2022/03/05 09:43:34;;;;;;;34.42;17.55;;;;;;;10.94;50.26;100726.28;6319179;22;20015;-80
2022/03/05 09:46:00;;;;;;;33.25;17.42;;;;;;;11.43;49.50;100723.59;6317880;22;20009;-82
2022/03/05 09:48:27;;;;;;;38.38;18.63;;;;;;;11.30;49.52;100728.56;6287493;22;20700;-80
2022/03/05 09:50:53;;;;;;;27.75;16.40;;;;;;;11.30;49.05;100728.56;6285551;22;20030;-82
2022/03/05 09:53:23;;;;;;;30.25;16.70;;;;;;;10.66;49.84;100726.50;6317484;22;20011;-82
2022/03/05 09:55:49;;;;;;;31.48;16.45;;;;;;;9.77;51.78;100715.22;6324723;22;20014;-83
2022/03/05 09:58:16;;;;;;;32.03;16.02;;;;;;;9.30;52.23;100713.78;6326829;22;20120;-79
2022/03/05 10:00:41;;;;;;;27.73;13.48;;;;;;;9.37;51.50;100712.19;6321921;22;20047;-81
2022/03/05 10:03:12;;;;;;;28.33;15.15;;;;;;;10.01;49.21;100719.06;6319683;22;20007;-80
2022/03/05 10:05:37;;;;;;;26.27;14.63;;;;;;;10.48;47.95;100711.63;6296799;22;20011;-83
2022/03/05 10:08:15;;;;;;;29.17;14.25;;;;;;;10.66;46.89;100713.22;6299792;22;20034;-80
2022/03/05 10:10:49;;;;;;;34.90;14.48;;;;;;;10.57;46.70;100703.56;6321725;22;20007;-80
2022/03/05 10:13:16;;;;;;;31.20;15.50;;;;;;;10.39;47.16;100708.09;6314819;22;20015;-82
2022/03/05 10:15:42;;;;;;;21.88;12.30;;;;;;;10.17;46.99;100703.34;6318026;22;20426;-82
2022/03/05 10:18:08;;;;;;;27.05;13.50;;;;;;;9.58;48.07;100694.19;6292382;22;20038;-83
2022/03/05 10:20:34;;;;;;;29.83;12.80;;;;;;;10.84;45.62;100690.09;6289320;22;20423;-82
2022/03/05 10:23:11;;;;;;;22.20;11.75;;;;;;;11.39;42.44;100692.28;6291325;22;20007;-82
2022/03/05 10:25:52;;;;;;;25.55;12.05;;;;;;;10.58;42.21;100705.22;6312926;22;20019;-82
2022/03/05 10:28:22;;;;;;;22.42;11.65;;;;;;;10.67;42.16;100708.78;6282560;22;20017;-81
2022/03/05 10:30:51;;;;;;;23.45;11.55;;;;;;;10.58;43.43;100683.19;6309753;22;20082;-81
2022/03/05 10:33:37;;;;;;;24.80;12.13;;;;;;;11.36;41.21;100687.28;6310933;22;20054;-82
2022/03/05 10:36:05;;;;;;;22.60;12.23;;;;;;;10.80;41.39;100677.34;6284083;22;20014;-83
2022/03/05 10:38:57;;;;;;;30.52;10.63;;;;;;;10.97;39.70;100692.31;6314503;22;20332;-81
2022/03/05 10:41:37;;;;;;;26.20;11.73;;;;;;;11.45;39.06;100682.81;6321150;22;20019;-83
2022/03/05 10:44:17;;;;;;;21.08;11.48;;;;;;;12.52;36.42;100700.25;6330594;22;20018;-84
2022/03/05 10:46:46;;;;;;;23.65;10.77;;;;;;;12.62;36.54;100700.88;6323875;22;20015;-79
2022/03/05 10:49:14;;;;;;;30.88;12.80;;;;;;;12.66;36.38;100696.84;6282981;22;20086;-82
2022/03/05 10:51:40;;;;;;;26.45;13.20;;;;;;;12.31;36.97;100687.47;6313468;22;20414;-81
2022/03/05 10:54:06;;;;;;;29.80;13.63;;;;;;;13.01;36.61;100690.25;6314912;22;20034;-84
2022/03/05 10:56:40;;;;;;;25.20;12.93;;;;;;;12.06;37.93;100677.06;6292664;22;20015;-80
2022/03/05 10:59:11;;;;;;;27.65;13.75;;;;;;;13.35;36.38;100687.28;6318041;22;20037;-83
2022/03/05 11:01:40;;;;;;;28.33;15.00;;;;;;;13.10;36.54;100701.69;6312039;22;20007;-82
2022/03/05 11:04:14;;;;;;;24.95;14.68;;;;;;;13.17;36.69;100689.34;6311647;22;20015;-82
2022/03/05 11:06:42;;;;;;;31.58;14.65;;;;;;;12.91;37.81;100682.47;6312538;22;20072;-81
2022/03/05 11:09:11;;;;;;;49.65;14.40;;;;;;;13.00;38.17;100688.56;6310843;22;20007;-80
2022/03/05 11:11:41;;;;;;;30.70;13.25;;;;;;;12.79;38.09;100675.84;6309679;22;20438;-79
2022/03/05 11:14:11;;;;;;;25.67;12.90;;;;;;;11.70;38.87;100668.59;6310672;22;20516;-81
2022/03/05 11:16:37;;;;;;;25.60;12.48;;;;;;;10.67;39.40;100672.47;6311185;22;20339;-82
2022/03/05 11:19:03;;;;;;;24.13;12.13;;;;;;;9.38;42.19;100668.88;6311095;22;20034;-82
2022/03/05 11:21:29;;;;;;;20.13;11.63;;;;;;;9.41;41.83;100650.09;6316673;22;20007;-88
2022/03/05 11:23:59;;;;;;;24.35;12.35;;;;;;;9.29;42.28;100656.56;6313666;22;20007;-82
2022/03/05 11:26:29;;;;;;;19.95;11.90;;;;;;;9.23;42.02;100651.88;6309566;22;20465;-82
2022/03/05 11:28:54;;;;;;;31.13;13.55;;;;;;;9.08;42.72;100638.31;6309916;22;20486;-80
2022/03/05 11:31:22;;;;;;;29.63;11.93;;;;;;;9.34;42.82;100643.72;6310570;22;20079;-82